sensor_id;sensor_type;location;lat;lon;timestamp;temperature;humidity
23729;DHT22;12045;60.214;24.724;2022-08-21T00:00:23;21.90;99.90
23729;DHT22;12045;60.214;24.724;2022-08-21T00:02:58;21.90;99.90
23729;DHT22;12045;60.214;24.724;2022-08-21T00:05:27;21.50;99.90
23729;DHT22;12045;60.214;24.724;2022-08-21T00:07:55;21.90;99.90
23729;DHT22;12045;60.214;24.724;2022-08-21T00:10:23;21.90;99.90
23729;DHT22;12045;60.214;24.724;2022-08-21T00:12:52;21.90;99.90
23729;DHT22;12045;60.214;24.724;2022-08-21T00:15:23;21.90;99.90
23729;DHT22;12045;60.214;24.724;2022-08-21T00:17:54;21.90;99.90
23729;DHT22;12045;60.214;24.724;2022-08-21T00:20:23;22.00;99.90
23729;DHT22;12045;60.214;24.724;2022-08-21T00:22:50;21.90;99.90
23729;DHT22;12045;60.214;24.724;2022-08-21T00:25:19;21.90;99.90
23729;DHT22;12045;60.214;24.724;2022-08-21T00:27:53;21.90;99.90
23729;DHT22;12045;60.214;24.724;2022-08-21T00:30:22;22.00;99.90
23729;DHT22;12045;60.214;24.724;2022-08-21T00:32:52;22.00;99.90
23729;DHT22;12045;60.214;24.724;2022-08-21T00:35:23;22.00;99.90
23729;DHT22;12045;60.214;24.724;2022-08-21T00:37:51;21.90;99.90
23729;DHT22;12045;60.214;24.724;2022-08-21T00:40:22;21.90;99.90
23729;DHT22;12045;60.214;24.724;2022-08-21T00:42:50;21.90;99.90
23729;DHT22;12045;60.214;24.724;2022-08-21T00:45:21;21.90;99.90
23729;DHT22;12045;60.214;24.724;2022-08-21T00:47:51;21.90;99.90
23729;DHT22;12045;60.214;24.724;2022-08-21T00:50:19;21.90;99.90
23729;DHT22;12045;60.214;24.724;2022-08-21T00:52:50;21.90;99.90
23729;DHT22;12045;60.214;24.724;2022-08-21T00:55:20;21.80;99.90
23729;DHT22;12045;60.214;24.724;2022-08-21T00:57:55;21.70;99.90
23729;DHT22;12045;60.214;24.724;2022-08-21T01:00:29;21.80;99.90
23729;DHT22;12045;60.214;24.724;2022-08-21T01:02:59;21.80;99.90
23729;DHT22;12045;60.214;24.724;2022-08-21T01:05:27;21.80;99.90
23729;DHT22;12045;60.214;24.724;2022-08-21T01:07:55;21.90;99.90
23729;DHT22;12045;60.214;24.724;2022-08-21T01:10:26;21.80;99.90
23729;DHT22;12045;60.214;24.724;2022-08-21T01:12:55;21.80;99.90
23729;DHT22;12045;60.214;24.724;2022-08-21T01:15:26;21.60;99.90
23729;DHT22;12045;60.214;24.724;2022-08-21T01:17:55;21.60;99.90
23729;DHT22;12045;60.214;24.724;2022-08-21T01:20:23;21.60;99.90
23729;DHT22;12045;60.214;24.724;2022-08-21T01:23:04;21.50;99.90
23729;DHT22;12045;60.214;24.724;2022-08-21T01:25:33;21.50;99.90
23729;DHT22;12045;60.214;24.724;2022-08-21T01:28:06;21.50;99.90
23729;DHT22;12045;60.214;24.724;2022-08-21T01:30:36;21.50;99.90
23729;DHT22;12045;60.214;24.724;2022-08-21T01:33:04;21.30;99.90
23729;DHT22;12045;60.214;24.724;2022-08-21T01:35:32;21.40;99.90
23729;DHT22;12045;60.214;24.724;2022-08-21T01:38:00;21.50;99.90
23729;DHT22;12045;60.214;24.724;2022-08-21T01:40:28;21.50;99.90
23729;DHT22;12045;60.214;24.724;2022-08-21T01:42:55;21.50;99.90
23729;DHT22;12045;60.214;24.724;2022-08-21T01:45:23;21.50;99.90
23729;DHT22;12045;60.214;24.724;2022-08-21T01:47:51;21.50;99.90
23729;DHT22;12045;60.214;24.724;2022-08-21T01:50:20;21.50;99.90
23729;DHT22;12045;60.214;24.724;2022-08-21T01:52:48;21.50;99.90
23729;DHT22;12045;60.214;24.724;2022-08-21T01:55:17;21.50;99.90
23729;DHT22;12045;60.214;24.724;2022-08-21T01:57:46;21.50;99.90
23729;DHT22;12045;60.214;24.724;2022-08-21T02:00:15;21.50;99.90
23729;DHT22;12045;60.214;24.724;2022-08-21T02:02:43;21.50;99.90
23729;DHT22;12045;60.214;24.724;2022-08-21T02:05:12;21.50;99.90
23729;DHT22;12045;60.214;24.724;2022-08-21T02:07:46;21.50;99.90
23729;DHT22;12045;60.214;24.724;2022-08-21T02:10:17;21.60;99.90
23729;DHT22;12045;60.214;24.724;2022-08-21T02:12:46;21.60;99.90
23729;DHT22;12045;60.214;24.724;2022-08-21T02:15:14;21.70;99.90
23729;DHT22;12045;60.214;24.724;2022-08-21T02:17:46;21.70;99.90
23729;DHT22;12045;60.214;24.724;2022-08-21T02:20:38;21.70;99.90
23729;DHT22;12045;60.214;24.724;2022-08-21T02:23:07;21.70;99.90
23729;DHT22;12045;60.214;24.724;2022-08-21T02:25:36;21.80;99.90
23729;DHT22;12045;60.214;24.724;2022-08-21T02:28:06;21.70;99.90
23729;DHT22;12045;60.214;24.724;2022-08-21T02:30:38;21.70;99.90
23729;DHT22;12045;60.214;24.724;2022-08-21T02:33:07;21.70;99.90
23729;DHT22;12045;60.214;24.724;2022-08-21T02:35:35;21.70;99.90
23729;DHT22;12045;60.214;24.724;2022-08-21T02:38:09;21.80;99.90
23729;DHT22;12045;60.214;24.724;2022-08-21T02:40:43;21.80;99.90
23729;DHT22;12045;60.214;24.724;2022-08-21T02:43:15;21.80;99.90
23729;DHT22;12045;60.214;24.724;2022-08-21T02:45:44;21.80;99.90
23729;DHT22;12045;60.214;24.724;2022-08-21T02:48:15;21.70;99.90
23729;DHT22;12045;60.214;24.724;2022-08-21T02:50:51;21.60;99.90
23729;DHT22;12045;60.214;24.724;2022-08-21T02:53:19;21.50;99.90
23729;DHT22;12045;60.214;24.724;2022-08-21T02:55:49;21.50;99.90
23729;DHT22;12045;60.214;24.724;2022-08-21T02:58:19;21.50;99.90
23729;DHT22;12045;60.214;24.724;2022-08-21T03:00:48;21.50;99.90
23729;DHT22;12045;60.214;24.724;2022-08-21T03:03:17;21.50;99.90
23729;DHT22;12045;60.214;24.724;2022-08-21T03:05:44;21.50;99.90
23729;DHT22;12045;60.214;24.724;2022-08-21T03:08:14;21.40;99.90
23729;DHT22;12045;60.214;24.724;2022-08-21T03:10:45;21.40;99.90
23729;DHT22;12045;60.214;24.724;2022-08-21T03:13:14;21.40;99.90
23729;DHT22;12045;60.214;24.724;2022-08-21T03:15:42;21.40;99.90
23729;DHT22;12045;60.214;24.724;2022-08-21T03:18:11;21.30;99.90
23729;DHT22;12045;60.214;24.724;2022-08-21T03:20:40;21.20;99.90
23729;DHT22;12045;60.214;24.724;2022-08-21T03:23:09;21.20;99.90
23729;DHT22;12045;60.214;24.724;2022-08-21T03:25:43;21.20;99.90
23729;DHT22;12045;60.214;24.724;2022-08-21T03:28:15;21.10;99.90
23729;DHT22;12045;60.214;24.724;2022-08-21T03:30:45;21.10;99.90
23729;DHT22;12045;60.214;24.724;2022-08-21T03:33:14;21.10;99.90
23729;DHT22;12045;60.214;24.724;2022-08-21T03:35:48;21.10;99.90
23729;DHT22;12045;60.214;24.724;2022-08-21T03:38:16;21.20;99.90
23729;DHT22;12045;60.214;24.724;2022-08-21T03:40:44;21.20;99.90
23729;DHT22;12045;60.214;24.724;2022-08-21T03:43:11;21.20;99.90
23729;DHT22;12045;60.214;24.724;2022-08-21T03:45:39;21.20;99.90
23729;DHT22;12045;60.214;24.724;2022-08-21T03:48:07;21.20;99.90
23729;DHT22;12045;60.214;24.724;2022-08-21T03:50:39;21.20;99.90
23729;DHT22;12045;60.214;24.724;2022-08-21T03:53:08;21.20;99.90
23729;DHT22;12045;60.214;24.724;2022-08-21T03:55:48;21.20;99.90
23729;DHT22;12045;60.214;24.724;2022-08-21T03:58:19;21.20;99.90
23729;DHT22;12045;60.214;24.724;2022-08-21T04:00:51;21.40;99.90
23729;DHT22;12045;60.214;24.724;2022-08-21T04:03:19;21.10;99.90
23729;DHT22;12045;60.214;24.724;2022-08-21T04:05:47;21.20;99.90
23729;DHT22;12045;60.214;24.724;2022-08-21T04:08:16;21.20;99.90
23729;DHT22;12045;60.214;24.724;2022-08-21T04:10:48;21.10;99.90
23729;DHT22;12045;60.214;24.724;2022-08-21T04:13:17;20.10;99.90
23729;DHT22;12045;60.214;24.724;2022-08-21T04:15:44;21.10;99.90
23729;DHT22;12045;60.214;24.724;2022-08-21T04:18:12;21.20;99.90
23729;DHT22;12045;60.214;24.724;2022-08-21T04:20:42;21.20;99.90
23729;DHT22;12045;60.214;24.724;2022-08-21T04:23:17;21.10;99.90
23729;DHT22;12045;60.214;24.724;2022-08-21T04:25:52;21.10;99.90
23729;DHT22;12045;60.214;24.724;2022-08-21T04:28:20;21.10;99.90
23729;DHT22;12045;60.214;24.724;2022-08-21T04:30:50;21.50;99.90
23729;DHT22;12045;60.214;24.724;2022-08-21T04:33:20;21.10;99.90
23729;DHT22;12045;60.214;24.724;2022-08-21T04:35:49;21.10;99.90
23729;DHT22;12045;60.214;24.724;2022-08-21T04:38:18;21.10;99.90
23729;DHT22;12045;60.214;24.724;2022-08-21T04:40:46;21.10;99.90
23729;DHT22;12045;60.214;24.724;2022-08-21T04:43:15;21.10;99.90
23729;DHT22;12045;60.214;24.724;2022-08-21T04:45:46;21.10;99.90
23729;DHT22;12045;60.214;24.724;2022-08-21T04:48:17;21.10;99.90
23729;DHT22;12045;60.214;24.724;2022-08-21T04:53:59;21.00;99.90
23729;DHT22;12045;60.214;24.724;2022-08-21T04:56:34;21.10;99.90
23729;DHT22;12045;60.214;24.724;2022-08-21T04:59:05;21.10;99.90
23729;DHT22;12045;60.214;24.724;2022-08-21T05:01:35;21.20;99.90
23729;DHT22;12045;60.214;24.724;2022-08-21T05:04:06;21.30;99.90
23729;DHT22;12045;60.214;24.724;2022-08-21T05:06:36;21.30;99.90
23729;DHT22;12045;60.214;24.724;2022-08-21T05:09:05;21.20;99.90
23729;DHT22;12045;60.214;24.724;2022-08-21T05:11:33;21.20;99.90
23729;DHT22;12045;60.214;24.724;2022-08-21T05:14:02;21.40;99.90
23729;DHT22;12045;60.214;24.724;2022-08-21T05:16:30;21.30;99.90
23729;DHT22;12045;60.214;24.724;2022-08-21T05:19:07;21.30;99.90
23729;DHT22;12045;60.214;24.724;2022-08-21T05:21:38;21.20;99.90
23729;DHT22;12045;60.214;24.724;2022-08-21T05:24:07;21.30;99.90
23729;DHT22;12045;60.214;24.724;2022-08-21T05:26:34;21.30;99.90
23729;DHT22;12045;60.214;24.724;2022-08-21T05:29:14;21.40;99.90
23729;DHT22;12045;60.214;24.724;2022-08-21T05:31:43;20.90;99.90
23729;DHT22;12045;60.214;24.724;2022-08-21T05:34:12;21.50;99.90
23729;DHT22;12045;60.214;24.724;2022-08-21T05:36:42;21.70;99.90
23729;DHT22;12045;60.214;24.724;2022-08-21T05:39:10;21.40;99.90
23729;DHT22;12045;60.214;24.724;2022-08-21T05:41:37;21.40;99.90
23729;DHT22;12045;60.214;24.724;2022-08-21T05:44:05;21.40;99.90
23729;DHT22;12045;60.214;24.724;2022-08-21T05:46:37;21.50;99.90
23729;DHT22;12045;60.214;24.724;2022-08-21T05:49:05;21.50;99.90
23729;DHT22;12045;60.214;24.724;2022-08-21T05:51:32;21.40;99.90
23729;DHT22;12045;60.214;24.724;2022-08-21T05:54:00;21.50;99.90
23729;DHT22;12045;60.214;24.724;2022-08-21T05:56:27;21.50;99.90
23729;DHT22;12045;60.214;24.724;2022-08-21T05:58:55;21.50;99.90
23729;DHT22;12045;60.214;24.724;2022-08-21T06:01:22;21.50;99.90
23729;DHT22;12045;60.214;24.724;2022-08-21T06:03:50;21.50;99.90
23729;DHT22;12045;60.214;24.724;2022-08-21T06:06:22;21.50;99.90
23729;DHT22;12045;60.214;24.724;2022-08-21T06:08:50;21.50;99.90
23729;DHT22;12045;60.214;24.724;2022-08-21T06:11:18;21.50;99.90
23729;DHT22;12045;60.214;24.724;2022-08-21T06:13:46;21.60;99.90
23729;DHT22;12045;60.214;24.724;2022-08-21T06:16:15;21.70;99.90
23729;DHT22;12045;60.214;24.724;2022-08-21T06:18:44;21.70;99.90
23729;DHT22;12045;60.214;24.724;2022-08-21T06:21:12;21.70;99.90
23729;DHT22;12045;60.214;24.724;2022-08-21T06:23:41;21.80;99.90
23729;DHT22;12045;60.214;24.724;2022-08-21T06:26:11;22.00;99.90
23729;DHT22;12045;60.214;24.724;2022-08-21T06:28:40;22.00;99.90
23729;DHT22;12045;60.214;24.724;2022-08-21T06:31:19;22.10;99.90
23729;DHT22;12045;60.214;24.724;2022-08-21T06:33:47;22.00;99.90
23729;DHT22;12045;60.214;24.724;2022-08-21T06:36:15;22.20;99.90
23729;DHT22;12045;60.214;24.724;2022-08-21T06:38:42;22.20;99.90
23729;DHT22;12045;60.214;24.724;2022-08-21T06:41:19;22.10;99.90
23729;DHT22;12045;60.214;24.724;2022-08-21T06:43:53;22.90;99.90
23729;DHT22;12045;60.214;24.724;2022-08-21T06:46:21;21.90;99.90
23729;DHT22;12045;60.214;24.724;2022-08-21T06:48:49;21.90;99.90
23729;DHT22;12045;60.214;24.724;2022-08-21T06:51:16;21.90;99.90
23729;DHT22;12045;60.214;24.724;2022-08-21T06:53:44;22.10;99.90
23729;DHT22;12045;60.214;24.724;2022-08-21T06:56:12;22.30;99.90
23729;DHT22;12045;60.214;24.724;2022-08-21T06:58:40;22.40;99.90
23729;DHT22;12045;60.214;24.724;2022-08-21T07:01:07;22.50;99.90
23729;DHT22;12045;60.214;24.724;2022-08-21T07:03:38;22.60;99.90
23729;DHT22;12045;60.214;24.724;2022-08-21T07:06:07;22.60;99.90
23729;DHT22;12045;60.214;24.724;2022-08-21T07:08:36;22.70;99.90
23729;DHT22;12045;60.214;24.724;2022-08-21T07:11:09;22.90;99.90
23729;DHT22;12045;60.214;24.724;2022-08-21T07:13:38;22.90;99.90
23729;DHT22;12045;60.214;24.724;2022-08-21T07:16:06;22.90;99.90
23729;DHT22;12045;60.214;24.724;2022-08-21T07:18:35;22.90;99.90
23729;DHT22;12045;60.214;24.724;2022-08-21T07:21:04;22.90;99.90
23729;DHT22;12045;60.214;24.724;2022-08-21T07:23:37;23.00;99.90
23729;DHT22;12045;60.214;24.724;2022-08-21T07:26:06;23.00;99.90
23729;DHT22;12045;60.214;24.724;2022-08-21T07:28:34;23.10;99.90
23729;DHT22;12045;60.214;24.724;2022-08-21T07:31:02;23.10;99.90
23729;DHT22;12045;60.214;24.724;2022-08-21T07:33:32;23.20;99.90
23729;DHT22;12045;60.214;24.724;2022-08-21T07:36:00;23.30;99.90
23729;DHT22;12045;60.214;24.724;2022-08-21T07:38:28;23.30;99.90
23729;DHT22;12045;60.214;24.724;2022-08-21T07:40:57;23.30;99.90
23729;DHT22;12045;60.214;24.724;2022-08-21T07:43:27;23.40;99.90
23729;DHT22;12045;60.214;24.724;2022-08-21T07:45:54;23.50;99.90
23729;DHT22;12045;60.214;24.724;2022-08-21T07:48:22;23.60;99.90
23729;DHT22;12045;60.214;24.724;2022-08-21T07:50:50;23.60;99.90
23729;DHT22;12045;60.214;24.724;2022-08-21T07:53:18;23.60;99.90
23729;DHT22;12045;60.214;24.724;2022-08-21T07:55:45;23.70;99.90
23729;DHT22;12045;60.214;24.724;2022-08-21T07:58:13;23.70;99.90
23729;DHT22;12045;60.214;24.724;2022-08-21T08:00:41;23.70;99.90
23729;DHT22;12045;60.214;24.724;2022-08-21T08:03:08;23.80;99.90
23729;DHT22;12045;60.214;24.724;2022-08-21T08:05:37;23.60;99.90
23729;DHT22;12045;60.214;24.724;2022-08-21T08:08:06;23.70;99.90
23729;DHT22;12045;60.214;24.724;2022-08-21T08:10:35;24.50;99.90
23729;DHT22;12045;60.214;24.724;2022-08-21T08:13:04;23.90;99.90
23729;DHT22;12045;60.214;24.724;2022-08-21T08:15:36;24.00;99.90
23729;DHT22;12045;60.214;24.724;2022-08-21T08:18:04;24.20;99.90
23729;DHT22;12045;60.214;24.724;2022-08-21T08:20:32;24.10;99.90
23729;DHT22;12045;60.214;24.724;2022-08-21T08:23:00;24.10;99.90
23729;DHT22;12045;60.214;24.724;2022-08-21T08:25:28;24.00;99.90
23729;DHT22;12045;60.214;24.724;2022-08-21T08:28:04;24.00;99.90
23729;DHT22;12045;60.214;24.724;2022-08-21T08:30:45;24.10;99.90
23729;DHT22;12045;60.214;24.724;2022-08-21T08:33:14;24.20;99.90
23729;DHT22;12045;60.214;24.724;2022-08-21T08:35:45;24.10;99.90
23729;DHT22;12045;60.214;24.724;2022-08-21T08:38:13;24.10;99.90
23729;DHT22;12045;60.214;24.724;2022-08-21T08:41:00;24.10;99.90
23729;DHT22;12045;60.214;24.724;2022-08-21T08:43:30;24.20;99.90
23729;DHT22;12045;60.214;24.724;2022-08-21T08:46:03;23.80;99.90
23729;DHT22;12045;60.214;24.724;2022-08-21T08:51:29;24.30;99.90
23729;DHT22;12045;60.214;24.724;2022-08-21T08:54:03;24.40;99.90
23729;DHT22;12045;60.214;24.724;2022-08-21T08:56:34;24.40;99.90
23729;DHT22;12045;60.214;24.724;2022-08-21T08:59:20;24.40;99.90
23729;DHT22;12045;60.214;24.724;2022-08-21T09:01:51;24.50;99.90
23729;DHT22;12045;60.214;24.724;2022-08-21T09:04:23;24.60;99.90
23729;DHT22;12045;60.214;24.724;2022-08-21T09:09:48;24.60;99.90
23729;DHT22;12045;60.214;24.724;2022-08-21T09:12:39;24.70;99.90
23729;DHT22;12045;60.214;24.724;2022-08-21T09:15:22;24.50;99.90
23729;DHT22;12045;60.214;24.724;2022-08-21T09:23:43;24.80;99.90
23729;DHT22;12045;60.214;24.724;2022-08-21T09:26:19;24.90;99.90
23729;DHT22;12045;60.214;24.724;2022-08-21T09:28:58;24.90;99.90
23729;DHT22;12045;60.214;24.724;2022-08-21T09:34:09;24.80;99.90
23729;DHT22;12045;60.214;24.724;2022-08-21T09:36:49;24.80;99.90
23729;DHT22;12045;60.214;24.724;2022-08-21T09:39:29;24.90;99.90
23729;DHT22;12045;60.214;24.724;2022-08-21T09:44:31;25.10;99.90
23729;DHT22;12045;60.214;24.724;2022-08-21T09:46:59;25.00;99.90
23729;DHT22;12045;60.214;24.724;2022-08-21T09:49:33;25.10;99.90
23729;DHT22;12045;60.214;24.724;2022-08-21T09:52:03;25.10;99.90
23729;DHT22;12045;60.214;24.724;2022-08-21T09:54:37;25.10;99.90
23729;DHT22;12045;60.214;24.724;2022-08-21T09:59:55;25.40;99.90
23729;DHT22;12045;60.214;24.724;2022-08-21T10:02:33;25.30;99.90
23729;DHT22;12045;60.214;24.724;2022-08-21T10:05:07;25.40;99.90
23729;DHT22;12045;60.214;24.724;2022-08-21T10:07:37;25.60;99.90
23729;DHT22;12045;60.214;24.724;2022-08-21T10:10:08;25.90;99.90
23729;DHT22;12045;60.214;24.724;2022-08-21T10:26:19;27.10;99.90
23729;DHT22;12045;60.214;24.724;2022-08-21T10:34:26;27.40;99.90
23729;DHT22;12045;60.214;24.724;2022-08-21T10:37:12;27.40;99.90
23729;DHT22;12045;60.214;24.724;2022-08-21T10:47:54;27.70;99.90
23729;DHT22;12045;60.214;24.724;2022-08-21T10:56:00;27.90;99.90
23729;DHT22;12045;60.214;24.724;2022-08-21T10:58:35;28.00;99.90
23729;DHT22;12045;60.214;24.724;2022-08-21T11:01:15;27.90;99.90
23729;DHT22;12045;60.214;24.724;2022-08-21T11:03:52;27.80;99.90
23729;DHT22;12045;60.214;24.724;2022-08-21T11:06:27;27.80;99.90
23729;DHT22;12045;60.214;24.724;2022-08-21T11:09:04;27.80;99.90
23729;DHT22;12045;60.214;24.724;2022-08-21T11:11:39;28.00;99.90
23729;DHT22;12045;60.214;24.724;2022-08-21T11:17:11;28.20;99.90
23729;DHT22;12045;60.214;24.724;2022-08-21T11:19:50;28.30;99.90
23729;DHT22;12045;60.214;24.724;2022-08-21T11:22:26;28.20;99.90
23729;DHT22;12045;60.214;24.724;2022-08-21T11:25:29;28.20;99.90
23729;DHT22;12045;60.214;24.724;2022-08-21T11:28:24;28.20;99.90
23729;DHT22;12045;60.214;24.724;2022-08-21T11:34:12;27.80;99.90
23729;DHT22;12045;60.214;24.724;2022-08-21T11:37:25;28.00;99.90
23729;DHT22;12045;60.214;24.724;2022-08-21T11:40:08;28.00;99.90
23729;DHT22;12045;60.214;24.724;2022-08-21T11:42:54;27.80;99.90
23729;DHT22;12045;60.214;24.724;2022-08-21T11:45:37;27.90;99.90
23729;DHT22;12045;60.214;24.724;2022-08-21T11:50:53;28.20;99.90
23729;DHT22;12045;60.214;24.724;2022-08-21T11:53:28;28.00;99.90
23729;DHT22;12045;60.214;24.724;2022-08-21T11:56:11;28.10;99.90
23729;DHT22;12045;60.214;24.724;2022-08-21T11:58:45;28.10;99.90
23729;DHT22;12045;60.214;24.724;2022-08-21T12:01:25;28.10;99.90
23729;DHT22;12045;60.214;24.724;2022-08-21T12:04:02;27.90;99.90
23729;DHT22;12045;60.214;24.724;2022-08-21T12:06:37;28.00;99.90
23729;DHT22;12045;60.214;24.724;2022-08-21T12:09:30;27.90;99.90
23729;DHT22;12045;60.214;24.724;2022-08-21T12:12:09;27.90;99.90
23729;DHT22;12045;60.214;24.724;2022-08-21T12:14:49;27.80;99.90
23729;DHT22;12045;60.214;24.724;2022-08-21T12:17:22;27.70;99.90
23729;DHT22;12045;60.214;24.724;2022-08-21T12:20:14;27.60;99.90
23729;DHT22;12045;60.214;24.724;2022-08-21T12:22:55;27.40;99.90
23729;DHT22;12045;60.214;24.724;2022-08-21T12:25:41;27.40;99.90
23729;DHT22;12045;60.214;24.724;2022-08-21T12:28:15;27.20;99.90
23729;DHT22;12045;60.214;24.724;2022-08-21T12:30:49;26.80;99.90
23729;DHT22;12045;60.214;24.724;2022-08-21T12:33:39;26.70;99.90
23729;DHT22;12045;60.214;24.724;2022-08-21T12:36:14;26.50;99.90
23729;DHT22;12045;60.214;24.724;2022-08-21T12:41:41;26.20;99.90
23729;DHT22;12045;60.214;24.724;2022-08-21T12:44:15;26.00;99.90
23729;DHT22;12045;60.214;24.724;2022-08-21T12:46:51;26.10;99.90
23729;DHT22;12045;60.214;24.724;2022-08-21T12:49:28;25.90;99.90
23729;DHT22;12045;60.214;24.724;2022-08-21T12:52:24;26.00;99.90
23729;DHT22;12045;60.214;24.724;2022-08-21T12:54:51;26.00;99.90
23729;DHT22;12045;60.214;24.724;2022-08-21T12:57:27;26.00;99.90
23729;DHT22;12045;60.214;24.724;2022-08-21T12:59:58;26.00;99.90
23729;DHT22;12045;60.214;24.724;2022-08-21T13:02:36;26.40;99.90
23729;DHT22;12045;60.214;24.724;2022-08-21T13:05:08;26.20;99.90
23729;DHT22;12045;60.214;24.724;2022-08-21T13:07:44;26.40;99.90
23729;DHT22;12045;60.214;24.724;2022-08-21T13:10:28;26.50;99.90
23729;DHT22;12045;60.214;24.724;2022-08-21T13:12:58;26.60;99.90
23729;DHT22;12045;60.214;24.724;2022-08-21T13:15:30;26.60;99.90
23729;DHT22;12045;60.214;24.724;2022-08-21T13:18:01;26.40;99.90
23729;DHT22;12045;60.214;24.724;2022-08-21T13:20:36;26.10;99.90
23729;DHT22;12045;60.214;24.724;2022-08-21T13:23:29;25.80;99.90
23729;DHT22;12045;60.214;24.724;2022-08-21T13:25:56;25.50;99.90
23729;DHT22;12045;60.214;24.724;2022-08-21T13:28:33;25.60;99.90
23729;DHT22;12045;60.214;24.724;2022-08-21T13:31:00;25.20;99.90
23729;DHT22;12045;60.214;24.724;2022-08-21T13:33:30;25.10;99.90
23729;DHT22;12045;60.214;24.724;2022-08-21T13:36:14;25.00;99.90
23729;DHT22;12045;60.214;24.724;2022-08-21T13:38:44;25.00;99.90
23729;DHT22;12045;60.214;24.724;2022-08-21T13:43:50;24.60;99.90
23729;DHT22;12045;60.214;24.724;2022-08-21T13:46:18;24.30;99.90
23729;DHT22;12045;60.214;24.724;2022-08-21T13:48:48;24.50;99.90
23729;DHT22;12045;60.214;24.724;2022-08-21T13:51:17;24.40;99.90
23729;DHT22;12045;60.214;24.724;2022-08-21T13:53:48;24.40;99.90
23729;DHT22;12045;60.214;24.724;2022-08-21T13:56:31;24.40;99.90
23729;DHT22;12045;60.214;24.724;2022-08-21T13:58:59;24.30;99.90
23729;DHT22;12045;60.214;24.724;2022-08-21T14:04:20;24.40;99.90
23729;DHT22;12045;60.214;24.724;2022-08-21T14:06:49;24.40;99.90
23729;DHT22;12045;60.214;24.724;2022-08-21T14:09:34;24.30;99.90
23729;DHT22;12045;60.214;24.724;2022-08-21T14:14:50;24.40;99.90
23729;DHT22;12045;60.214;24.724;2022-08-21T14:17:48;24.60;99.90
23729;DHT22;12045;60.214;24.724;2022-08-21T14:20:31;24.70;99.90
23729;DHT22;12045;60.214;24.724;2022-08-21T14:23:00;24.70;99.90
23729;DHT22;12045;60.214;24.724;2022-08-21T14:25:38;24.70;99.90
23729;DHT22;12045;60.214;24.724;2022-08-21T14:28:34;24.60;99.90
23729;DHT22;12045;60.214;24.724;2022-08-21T14:31:13;24.40;99.90
23729;DHT22;12045;60.214;24.724;2022-08-21T14:33:42;24.30;99.90
23729;DHT22;12045;60.214;24.724;2022-08-21T14:36:10;24.30;99.90
23729;DHT22;12045;60.214;24.724;2022-08-21T14:38:39;24.30;99.90
23729;DHT22;12045;60.214;24.724;2022-08-21T14:41:27;24.50;99.90
23729;DHT22;12045;60.214;24.724;2022-08-21T14:43:56;24.50;99.90
23729;DHT22;12045;60.214;24.724;2022-08-21T14:46:36;24.60;99.90
23729;DHT22;12045;60.214;24.724;2022-08-21T14:49:24;24.60;99.90
23729;DHT22;12045;60.214;24.724;2022-08-21T14:51:55;24.70;99.90
23729;DHT22;12045;60.214;24.724;2022-08-21T14:54:27;24.70;99.90
23729;DHT22;12045;60.214;24.724;2022-08-21T14:57:09;24.60;99.90
23729;DHT22;12045;60.214;24.724;2022-08-21T14:59:39;24.60;99.90
23729;DHT22;12045;60.214;24.724;2022-08-21T15:02:08;24.40;99.90
23729;DHT22;12045;60.214;24.724;2022-08-21T15:04:35;24.40;99.90
23729;DHT22;12045;60.214;24.724;2022-08-21T15:07:04;24.50;99.90
23729;DHT22;12045;60.214;24.724;2022-08-21T15:09:31;24.40;99.90
23729;DHT22;12045;60.214;24.724;2022-08-21T15:12:01;24.50;99.90
23729;DHT22;12045;60.214;24.724;2022-08-21T15:14:32;24.50;99.90
23729;DHT22;12045;60.214;24.724;2022-08-21T15:17:01;24.50;99.90
23729;DHT22;12045;60.214;24.724;2022-08-21T15:19:30;24.50;99.90
23729;DHT22;12045;60.214;24.724;2022-08-21T15:21:58;24.50;99.90
23729;DHT22;12045;60.214;24.724;2022-08-21T15:24:27;24.50;99.90
23729;DHT22;12045;60.214;24.724;2022-08-21T15:26:56;24.40;99.90
23729;DHT22;12045;60.214;24.724;2022-08-21T15:29:24;24.40;99.90
23729;DHT22;12045;60.214;24.724;2022-08-21T15:32:19;24.40;99.90
23729;DHT22;12045;60.214;24.724;2022-08-21T15:34:50;24.40;99.90
23729;DHT22;12045;60.214;24.724;2022-08-21T15:37:19;24.50;99.90
23729;DHT22;12045;60.214;24.724;2022-08-21T15:39:46;24.50;99.90
23729;DHT22;12045;60.214;24.724;2022-08-21T15:42:21;24.40;99.90
23729;DHT22;12045;60.214;24.724;2022-08-21T15:44:48;24.50;99.90
23729;DHT22;12045;60.214;24.724;2022-08-21T15:47:21;24.50;99.90
23729;DHT22;12045;60.214;24.724;2022-08-21T15:49:49;24.50;99.90
23729;DHT22;12045;60.214;24.724;2022-08-21T15:52:19;24.40;99.90
23729;DHT22;12045;60.214;24.724;2022-08-21T15:54:47;24.40;99.90
23729;DHT22;12045;60.214;24.724;2022-08-21T15:57:18;24.40;99.90
23729;DHT22;12045;60.214;24.724;2022-08-21T15:59:49;24.40;99.90
23729;DHT22;12045;60.214;24.724;2022-08-21T16:02:29;24.30;99.90
23729;DHT22;12045;60.214;24.724;2022-08-21T16:04:57;24.40;99.90
23729;DHT22;12045;60.214;24.724;2022-08-21T16:07:25;24.20;99.90
23729;DHT22;12045;60.214;24.724;2022-08-21T16:09:53;24.20;99.90
23729;DHT22;12045;60.214;24.724;2022-08-21T16:12:32;24.20;99.90
23729;DHT22;12045;60.214;24.724;2022-08-21T16:15:01;24.20;99.90
23729;DHT22;12045;60.214;24.724;2022-08-21T16:17:34;24.20;99.90
23729;DHT22;12045;60.214;24.724;2022-08-21T16:20:08;24.10;99.90
23729;DHT22;12045;60.214;24.724;2022-08-21T16:22:36;24.10;99.90
23729;DHT22;12045;60.214;24.724;2022-08-21T16:25:15;24.10;99.90
23729;DHT22;12045;60.214;24.724;2022-08-21T16:27:48;24.20;99.90
23729;DHT22;12045;60.214;24.724;2022-08-21T16:30:18;24.10;99.90
23729;DHT22;12045;60.214;24.724;2022-08-21T16:32:46;24.00;99.90
23729;DHT22;12045;60.214;24.724;2022-08-21T16:35:17;24.00;99.90
23729;DHT22;12045;60.214;24.724;2022-08-21T16:37:45;23.70;99.90
23729;DHT22;12045;60.214;24.724;2022-08-21T16:40:18;23.90;99.90
23729;DHT22;12045;60.214;24.724;2022-08-21T16:42:47;23.80;99.90
23729;DHT22;12045;60.214;24.724;2022-08-21T16:45:17;23.80;99.90
23729;DHT22;12045;60.214;24.724;2022-08-21T16:47:45;23.70;99.90
23729;DHT22;12045;60.214;24.724;2022-08-21T16:50:20;23.70;99.90
23729;DHT22;12045;60.214;24.724;2022-08-21T16:52:49;23.90;99.90
23729;DHT22;12045;60.214;24.724;2022-08-21T16:55:17;23.70;99.90
23729;DHT22;12045;60.214;24.724;2022-08-21T16:57:44;23.90;99.90
23729;DHT22;12045;60.214;24.724;2022-08-21T17:00:12;23.60;99.90